sensor_id;sensor_type;location;lat;lon;timestamp;P1;durP1;ratioP1;P2;durP2;ratioP2
19414;SDS011;9843;48.882;12.592;2022-08-19T00:01:55;13.87;;;12.57;;
19414;SDS011;9843;48.882;12.592;2022-08-19T00:04:26;12.73;;;11.57;;
19414;SDS011;9843;48.882;12.592;2022-08-19T00:06:58;13.17;;;11.80;;
19414;SDS011;9843;48.882;12.592;2022-08-19T00:09:25;17.90;;;13.77;;
19414;SDS011;9843;48.882;12.592;2022-08-19T00:11:53;13.60;;;12.20;;
19414;SDS011;9843;48.882;12.592;2022-08-19T00:14:21;14.07;;;12.77;;
19414;SDS011;9843;48.882;12.592;2022-08-19T00:16:50;14.60;;;12.70;;
19414;SDS011;9843;48.882;12.592;2022-08-19T00:19:20;17.77;;;13.43;;
19414;SDS011;9843;48.882;12.592;2022-08-19T00:21:47;15.53;;;13.93;;
19414;SDS011;9843;48.882;12.592;2022-08-19T00:24:14;14.57;;;13.13;;
19414;SDS011;9843;48.882;12.592;2022-08-19T00:26:41;15.67;;;14.07;;
19414;SDS011;9843;48.882;12.592;2022-08-19T00:29:11;13.37;;;12.10;;
19414;SDS011;9843;48.882;12.592;2022-08-19T00:31:39;17.73;;;14.30;;
19414;SDS011;9843;48.882;12.592;2022-08-19T00:34:09;15.77;;;12.87;;
19414;SDS011;9843;48.882;12.592;2022-08-19T00:36:36;20.13;;;13.93;;
19414;SDS011;9843;48.882;12.592;2022-08-19T00:39:04;14.43;;;11.37;;
19414;SDS011;9843;48.882;12.592;2022-08-19T00:41:31;15.73;;;14.10;;
19414;SDS011;9843;48.882;12.592;2022-08-19T00:43:59;14.47;;;12.87;;
19414;SDS011;9843;48.882;12.592;2022-08-19T00:46:28;15.50;;;12.67;;
19414;SDS011;9843;48.882;12.592;2022-08-19T00:48:55;13.63;;;12.30;;
19414;SDS011;9843;48.882;12.592;2022-08-19T00:51:25;13.97;;;12.50;;
19414;SDS011;9843;48.882;12.592;2022-08-19T00:53:53;14.90;;;13.33;;
19414;SDS011;9843;48.882;12.592;2022-08-19T00:56:22;16.63;;;13.10;;
19414;SDS011;9843;48.882;12.592;2022-08-19T00:58:52;18.50;;;14.80;;
19414;SDS011;9843;48.882;12.592;2022-08-19T01:01:22;15.93;;;14.33;;
19414;SDS011;9843;48.882;12.592;2022-08-19T01:03:49;15.30;;;13.53;;
19414;SDS011;9843;48.882;12.592;2022-08-19T01:06:16;16.00;;;14.33;;
19414;SDS011;9843;48.882;12.592;2022-08-19T01:08:44;18.90;;;15.77;;
19414;SDS011;9843;48.882;12.592;2022-08-19T01:11:11;18.67;;;16.07;;
19414;SDS011;9843;48.882;12.592;2022-08-19T01:13:38;19.17;;;15.47;;
19414;SDS011;9843;48.882;12.592;2022-08-19T01:16:08;22.63;;;15.60;;
19414;SDS011;9843;48.882;12.592;2022-08-19T01:18:38;15.70;;;14.40;;
19414;SDS011;9843;48.882;12.592;2022-08-19T01:21:09;17.77;;;16.00;;
19414;SDS011;9843;48.882;12.592;2022-08-19T01:23:42;18.10;;;15.40;;
19414;SDS011;9843;48.882;12.592;2022-08-19T01:26:10;16.10;;;14.47;;
19414;SDS011;9843;48.882;12.592;2022-08-19T01:28:39;17.23;;;14.20;;
19414;SDS011;9843;48.882;12.592;2022-08-19T01:31:08;17.80;;;13.97;;
19414;SDS011;9843;48.882;12.592;2022-08-19T01:33:38;18.47;;;15.03;;
19414;SDS011;9843;48.882;12.592;2022-08-19T01:36:07;18.20;;;14.37;;
19414;SDS011;9843;48.882;12.592;2022-08-19T01:38:36;18.07;;;15.93;;
19414;SDS011;9843;48.882;12.592;2022-08-19T01:41:05;19.30;;;17.23;;
19414;SDS011;9843;48.882;12.592;2022-08-19T01:43:32;19.33;;;17.53;;
19414;SDS011;9843;48.882;12.592;2022-08-19T01:45:59;18.37;;;16.67;;
19414;SDS011;9843;48.882;12.592;2022-08-19T01:48:32;19.23;;;17.47;;
19414;SDS011;9843;48.882;12.592;2022-08-19T01:50:59;19.43;;;17.63;;
19414;SDS011;9843;48.882;12.592;2022-08-19T01:53:26;20.80;;;15.67;;
19414;SDS011;9843;48.882;12.592;2022-08-19T01:55:53;19.73;;;17.67;;
19414;SDS011;9843;48.882;12.592;2022-08-19T01:58:22;19.63;;;16.73;;
19414;SDS011;9843;48.882;12.592;2022-08-19T02:00:54;19.33;;;17.10;;
19414;SDS011;9843;48.882;12.592;2022-08-19T02:03:21;21.67;;;19.47;;
19414;SDS011;9843;48.882;12.592;2022-08-19T02:05:48;22.00;;;17.03;;
19414;SDS011;9843;48.882;12.592;2022-08-19T02:08:20;19.73;;;17.83;;
19414;SDS011;9843;48.882;12.592;2022-08-19T02:10:47;20.33;;;17.90;;
19414;SDS011;9843;48.882;12.592;2022-08-19T02:13:14;18.87;;;17.07;;
19414;SDS011;9843;48.882;12.592;2022-08-19T02:15:43;22.87;;;20.50;;
19414;SDS011;9843;48.882;12.592;2022-08-19T02:18:09;23.63;;;21.10;;
19414;SDS011;9843;48.882;12.592;2022-08-19T02:20:37;18.77;;;16.93;;
19414;SDS011;9843;48.882;12.592;2022-08-19T02:23:05;22.50;;;19.70;;
19414;SDS011;9843;48.882;12.592;2022-08-19T02:25:33;26.03;;;21.57;;
19414;SDS011;9843;48.882;12.592;2022-08-19T02:27:59;23.37;;;20.97;;
19414;SDS011;9843;48.882;12.592;2022-08-19T02:30:27;21.90;;;19.77;;
19414;SDS011;9843;48.882;12.592;2022-08-19T02:32:55;25.10;;;22.47;;
19414;SDS011;9843;48.882;12.592;2022-08-19T02:35:22;24.43;;;21.90;;
19414;SDS011;9843;48.882;12.592;2022-08-19T02:37:49;25.90;;;23.23;;
19414;SDS011;9843;48.882;12.592;2022-08-19T02:40:34;23.97;;;21.63;;
19414;SDS011;9843;48.882;12.592;2022-08-19T02:43:01;25.37;;;21.00;;
19414;SDS011;9843;48.882;12.592;2022-08-19T02:45:31;24.07;;;21.87;;
19414;SDS011;9843;48.882;12.592;2022-08-19T02:47:59;23.10;;;20.80;;
19414;SDS011;9843;48.882;12.592;2022-08-19T02:50:26;26.83;;;23.67;;
19414;SDS011;9843;48.882;12.592;2022-08-19T02:52:53;30.30;;;24.83;;
19414;SDS011;9843;48.882;12.592;2022-08-19T02:55:19;28.27;;;23.27;;
19414;SDS011;9843;48.882;12.592;2022-08-19T02:57:46;24.60;;;22.20;;
19414;SDS011;9843;48.882;12.592;2022-08-19T03:00:14;27.30;;;21.90;;
19414;SDS011;9843;48.882;12.592;2022-08-19T03:02:41;25.07;;;22.57;;
19414;SDS011;9843;48.882;12.592;2022-08-19T03:05:09;26.67;;;22.23;;
19414;SDS011;9843;48.882;12.592;2022-08-19T03:07:37;23.97;;;21.77;;
19414;SDS011;9843;48.882;12.592;2022-08-19T03:10:04;24.67;;;21.70;;
19414;SDS011;9843;48.882;12.592;2022-08-19T03:12:34;29.23;;;23.87;;
19414;SDS011;9843;48.882;12.592;2022-08-19T03:15:03;31.00;;;24.07;;
19414;SDS011;9843;48.882;12.592;2022-08-19T03:17:30;27.43;;;22.27;;
19414;SDS011;9843;48.882;12.592;2022-08-19T03:19:57;25.13;;;22.50;;
19414;SDS011;9843;48.882;12.592;2022-08-19T03:22:25;27.40;;;22.13;;
19414;SDS011;9843;48.882;12.592;2022-08-19T03:24:52;26.70;;;22.47;;
19414;SDS011;9843;48.882;12.592;2022-08-19T03:27:19;27.67;;;24.77;;
19414;SDS011;9843;48.882;12.592;2022-08-19T03:29:46;23.13;;;20.77;;
19414;SDS011;9843;48.882;12.592;2022-08-19T03:32:13;28.17;;;24.43;;
19414;SDS011;9843;48.882;12.592;2022-08-19T03:34:40;24.03;;;21.57;;
19414;SDS011;9843;48.882;12.592;2022-08-19T03:37:07;22.90;;;20.70;;
19414;SDS011;9843;48.882;12.592;2022-08-19T03:39:37;25.93;;;23.40;;
19414;SDS011;9843;48.882;12.592;2022-08-19T03:42:04;23.53;;;20.73;;
19414;SDS011;9843;48.882;12.592;2022-08-19T03:44:31;29.00;;;23.90;;
19414;SDS011;9843;48.882;12.592;2022-08-19T03:46:58;27.70;;;22.20;;
19414;SDS011;9843;48.882;12.592;2022-08-19T03:49:26;31.20;;;23.73;;
19414;SDS011;9843;48.882;12.592;2022-08-19T03:51:55;24.53;;;22.07;;
19414;SDS011;9843;48.882;12.592;2022-08-19T03:54:23;25.63;;;23.13;;
19414;SDS011;9843;48.882;12.592;2022-08-19T03:56:52;25.83;;;22.93;;
19414;SDS011;9843;48.882;12.592;2022-08-19T03:59:22;25.77;;;23.00;;
19414;SDS011;9843;48.882;12.592;2022-08-19T04:01:50;25.90;;;22.73;;
19414;SDS011;9843;48.882;12.592;2022-08-19T04:04:17;28.37;;;23.60;;
19414;SDS011;9843;48.882;12.592;2022-08-19T04:06:44;26.30;;;20.43;;
19414;SDS011;9843;48.882;12.592;2022-08-19T04:09:12;29.33;;;23.20;;
19414;SDS011;9843;48.882;12.592;2022-08-19T04:11:40;24.70;;;22.17;;
19414;SDS011;9843;48.882;12.592;2022-08-19T04:14:09;23.33;;;20.87;;
19414;SDS011;9843;48.882;12.592;2022-08-19T04:16:37;22.43;;;20.27;;
19414;SDS011;9843;48.882;12.592;2022-08-19T04:19:04;24.47;;;22.03;;
19414;SDS011;9843;48.882;12.592;2022-08-19T04:21:32;21.63;;;19.33;;
19414;SDS011;9843;48.882;12.592;2022-08-19T04:23:59;24.50;;;21.60;;
19414;SDS011;9843;48.882;12.592;2022-08-19T04:26:27;23.50;;;21.03;;
19414;SDS011;9843;48.882;12.592;2022-08-19T04:28:57;22.10;;;19.80;;
19414;SDS011;9843;48.882;12.592;2022-08-19T04:31:26;28.27;;;23.93;;
19414;SDS011;9843;48.882;12.592;2022-08-19T04:33:55;23.70;;;21.30;;
19414;SDS011;9843;48.882;12.592;2022-08-19T04:36:23;22.73;;;20.43;;
19414;SDS011;9843;48.882;12.592;2022-08-19T04:38:53;23.20;;;21.00;;
19414;SDS011;9843;48.882;12.592;2022-08-19T04:41:21;21.47;;;19.20;;
19414;SDS011;9843;48.882;12.592;2022-08-19T04:44:05;20.57;;;18.57;;
19414;SDS011;9843;48.882;12.592;2022-08-19T04:46:34;24.53;;;20.60;;
19414;SDS011;9843;48.882;12.592;2022-08-19T04:49:02;22.80;;;20.50;;
19414;SDS011;9843;48.882;12.592;2022-08-19T04:51:31;22.90;;;20.70;;
19414;SDS011;9843;48.882;12.592;2022-08-19T04:53:59;26.00;;;23.33;;
19414;SDS011;9843;48.882;12.592;2022-08-19T04:56:27;24.77;;;22.50;;
19414;SDS011;9843;48.882;12.592;2022-08-19T04:58:54;23.97;;;20.97;;
19414;SDS011;9843;48.882;12.592;2022-08-19T05:01:23;26.03;;;23.47;;
19414;SDS011;9843;48.882;12.592;2022-08-19T05:03:52;25.53;;;19.97;;
19414;SDS011;9843;48.882;12.592;2022-08-19T05:06:20;24.17;;;21.60;;
19414;SDS011;9843;48.882;12.592;2022-08-19T05:08:47;24.87;;;22.23;;
19414;SDS011;9843;48.882;12.592;2022-08-19T05:11:15;24.67;;;20.90;;
19414;SDS011;9843;48.882;12.592;2022-08-19T05:13:45;21.20;;;18.43;;
19414;SDS011;9843;48.882;12.592;2022-08-19T05:16:14;22.93;;;20.77;;
19414;SDS011;9843;48.882;12.592;2022-08-19T05:18:43;20.40;;;18.30;;
19414;SDS011;9843;48.882;12.592;2022-08-19T05:21:28;23.67;;;21.37;;
19414;SDS011;9843;48.882;12.592;2022-08-19T05:24:13;21.03;;;18.50;;
19414;SDS011;9843;48.882;12.592;2022-08-19T05:26:41;21.67;;;18.60;;
19414;SDS011;9843;48.882;12.592;2022-08-19T05:29:11;23.27;;;21.03;;
19414;SDS011;9843;48.882;12.592;2022-08-19T05:31:39;21.70;;;19.50;;
19414;SDS011;9843;48.882;12.592;2022-08-19T05:34:06;20.07;;;18.23;;
19414;SDS011;9843;48.882;12.592;2022-08-19T05:36:36;23.43;;;18.13;;
19414;SDS011;9843;48.882;12.592;2022-08-19T05:39:05;24.27;;;21.93;;
19414;SDS011;9843;48.882;12.592;2022-08-19T05:41:33;23.70;;;21.07;;
19414;SDS011;9843;48.882;12.592;2022-08-19T05:44:01;27.03;;;22.37;;
19414;SDS011;9843;48.882;12.592;2022-08-19T05:46:30;28.03;;;22.37;;
19414;SDS011;9843;48.882;12.592;2022-08-19T05:48:57;21.90;;;19.57;;
19414;SDS011;9843;48.882;12.592;2022-08-19T05:51:24;19.43;;;17.57;;
19414;SDS011;9843;48.882;12.592;2022-08-19T05:53:53;20.23;;;18.27;;
19414;SDS011;9843;48.882;12.592;2022-08-19T05:56:20;22.33;;;20.03;;
19414;SDS011;9843;48.882;12.592;2022-08-19T05:58:46;21.67;;;19.67;;
19414;SDS011;9843;48.882;12.592;2022-08-19T06:01:14;24.07;;;21.77;;
19414;SDS011;9843;48.882;12.592;2022-08-19T06:03:42;21.73;;;19.60;;
19414;SDS011;9843;48.882;12.592;2022-08-19T06:06:11;25.03;;;22.50;;
19414;SDS011;9843;48.882;12.592;2022-08-19T06:08:39;24.93;;;21.27;;
19414;SDS011;9843;48.882;12.592;2022-08-19T06:11:16;25.50;;;23.10;;
19414;SDS011;9843;48.882;12.592;2022-08-19T06:13:46;20.10;;;18.10;;
19414;SDS011;9843;48.882;12.592;2022-08-19T06:16:16;21.63;;;19.33;;
19414;SDS011;9843;48.882;12.592;2022-08-19T06:18:53;23.30;;;21.10;;
19414;SDS011;9843;48.882;12.592;2022-08-19T06:21:22;23.60;;;21.20;;
19414;SDS011;9843;48.882;12.592;2022-08-19T06:23:52;25.50;;;22.73;;
19414;SDS011;9843;48.882;12.592;2022-08-19T06:26:21;23.00;;;20.80;;
19414;SDS011;9843;48.882;12.592;2022-08-19T06:28:49;23.50;;;21.30;;
19414;SDS011;9843;48.882;12.592;2022-08-19T06:31:17;24.57;;;21.80;;
19414;SDS011;9843;48.882;12.592;2022-08-19T06:33:46;23.73;;;21.57;;
19414;SDS011;9843;48.882;12.592;2022-08-19T06:36:18;24.57;;;22.17;;
19414;SDS011;9843;48.882;12.592;2022-08-19T06:38:46;26.27;;;22.83;;
19414;SDS011;9843;48.882;12.592;2022-08-19T06:41:13;23.80;;;21.40;;
19414;SDS011;9843;48.882;12.592;2022-08-19T06:43:41;23.67;;;19.97;;
19414;SDS011;9843;48.882;12.592;2022-08-19T06:46:09;30.17;;;22.53;;
19414;SDS011;9843;48.882;12.592;2022-08-19T06:48:37;25.57;;;23.07;;
19414;SDS011;9843;48.882;12.592;2022-08-19T06:51:04;24.70;;;22.40;;
19414;SDS011;9843;48.882;12.592;2022-08-19T06:53:32;23.13;;;20.40;;
19414;SDS011;9843;48.882;12.592;2022-08-19T06:55:58;26.07;;;23.07;;
19414;SDS011;9843;48.882;12.592;2022-08-19T06:58:27;25.73;;;23.17;;
19414;SDS011;9843;48.882;12.592;2022-08-19T07:00:58;21.90;;;19.67;;
19414;SDS011;9843;48.882;12.592;2022-08-19T07:03:26;23.67;;;19.63;;
19414;SDS011;9843;48.882;12.592;2022-08-19T07:05:54;26.17;;;20.77;;
19414;SDS011;9843;48.882;12.592;2022-08-19T07:08:21;23.20;;;20.90;;
19414;SDS011;9843;48.882;12.592;2022-08-19T07:10:49;25.27;;;22.83;;
19414;SDS011;9843;48.882;12.592;2022-08-19T07:13:16;23.30;;;18.63;;
19414;SDS011;9843;48.882;12.592;2022-08-19T07:15:42;24.20;;;21.80;;
19414;SDS011;9843;48.882;12.592;2022-08-19T07:18:13;22.43;;;19.63;;
19414;SDS011;9843;48.882;12.592;2022-08-19T07:20:40;25.80;;;20.93;;
19414;SDS011;9843;48.882;12.592;2022-08-19T07:23:08;24.60;;;22.20;;
19414;SDS011;9843;48.882;12.592;2022-08-19T07:25:35;26.67;;;23.37;;
19414;SDS011;9843;48.882;12.592;2022-08-19T07:28:02;20.23;;;18.33;;
19414;SDS011;9843;48.882;12.592;2022-08-19T07:30:29;23.87;;;21.40;;
19414;SDS011;9843;48.882;12.592;2022-08-19T07:32:57;23.03;;;20.63;;
19414;SDS011;9843;48.882;12.592;2022-08-19T07:35:25;25.87;;;23.17;;
19414;SDS011;9843;48.882;12.592;2022-08-19T07:37:53;23.17;;;20.47;;
19414;SDS011;9843;48.882;12.592;2022-08-19T07:40:20;25.73;;;22.50;;
19414;SDS011;9843;48.882;12.592;2022-08-19T07:42:47;26.40;;;23.20;;
19414;SDS011;9843;48.882;12.592;2022-08-19T07:45:13;21.40;;;19.30;;
19414;SDS011;9843;48.882;12.592;2022-08-19T07:47:41;27.07;;;24.27;;
19414;SDS011;9843;48.882;12.592;2022-08-19T07:50:09;23.13;;;20.77;;
19414;SDS011;9843;48.882;12.592;2022-08-19T07:52:38;27.80;;;24.90;;
19414;SDS011;9843;48.882;12.592;2022-08-19T07:55:09;23.50;;;21.10;;
19414;SDS011;9843;48.882;12.592;2022-08-19T07:57:36;19.57;;;17.63;;
19414;SDS011;9843;48.882;12.592;2022-08-19T08:00:04;23.53;;;21.20;;
19414;SDS011;9843;48.882;12.592;2022-08-19T08:02:32;25.87;;;19.20;;
19414;SDS011;9843;48.882;12.592;2022-08-19T08:04:58;22.90;;;20.50;;
19414;SDS011;9843;48.882;12.592;2022-08-19T08:07:44;26.77;;;24.20;;
19414;SDS011;9843;48.882;12.592;2022-08-19T08:10:28;21.57;;;19.40;;
19414;SDS011;9843;48.882;12.592;2022-08-19T08:12:55;21.47;;;19.33;;
19414;SDS011;9843;48.882;12.592;2022-08-19T08:15:21;23.73;;;21.27;;
19414;SDS011;9843;48.882;12.592;2022-08-19T08:17:48;20.30;;;18.20;;
19414;SDS011;9843;48.882;12.592;2022-08-19T08:20:15;20.93;;;18.90;;
19414;SDS011;9843;48.882;12.592;2022-08-19T08:22:44;21.40;;;19.23;;
19414;SDS011;9843;48.882;12.592;2022-08-19T08:25:29;22.73;;;20.43;;
19414;SDS011;9843;48.882;12.592;2022-08-19T08:27:56;22.23;;;20.03;;
19414;SDS011;9843;48.882;12.592;2022-08-19T08:30:25;27.60;;;21.17;;
19414;SDS011;9843;48.882;12.592;2022-08-19T08:32:53;23.10;;;20.80;;
19414;SDS011;9843;48.882;12.592;2022-08-19T08:35:21;21.43;;;19.43;;
19414;SDS011;9843;48.882;12.592;2022-08-19T08:37:51;19.73;;;17.80;;
19414;SDS011;9843;48.882;12.592;2022-08-19T08:40:21;21.30;;;19.17;;
19414;SDS011;9843;48.882;12.592;2022-08-19T08:42:55;21.60;;;19.57;;
19414;SDS011;9843;48.882;12.592;2022-08-19T08:45:27;21.47;;;19.47;;
19414;SDS011;9843;48.882;12.592;2022-08-19T08:47:55;23.00;;;16.17;;
19414;SDS011;9843;48.882;12.592;2022-08-19T08:50:28;19.87;;;17.90;;
19414;SDS011;9843;48.882;12.592;2022-08-19T08:53:02;18.77;;;16.83;;
19414;SDS011;9843;48.882;12.592;2022-08-19T08:55:31;20.57;;;18.43;;
19414;SDS011;9843;48.882;12.592;2022-08-19T08:58:00;18.37;;;16.67;;
19414;SDS011;9843;48.882;12.592;2022-08-19T09:00:31;20.25;;;18.25;;
19414;SDS011;9843;48.882;12.592;2022-08-19T09:03:00;17.30;;;15.68;;
19414;SDS011;9843;48.882;12.592;2022-08-19T09:05:30;25.35;;;20.88;;
19414;SDS011;9843;48.882;12.592;2022-08-19T09:08:08;27.27;;;21.17;;
19414;SDS011;9843;48.882;12.592;2022-08-19T09:10:43;20.33;;;18.42;;
19414;SDS011;9843;48.882;12.592;2022-08-19T09:13:17;22.67;;;20.15;;
19414;SDS011;9843;48.882;12.592;2022-08-19T09:15:52;21.83;;;19.60;;
19414;SDS011;9843;48.882;12.592;2022-08-19T09:18:23;20.77;;;18.58;;
19414;SDS011;9843;48.882;12.592;2022-08-19T09:20:50;25.67;;;20.02;;
19414;SDS011;9843;48.882;12.592;2022-08-19T09:23:19;21.40;;;19.20;;
19414;SDS011;9843;48.882;12.592;2022-08-19T09:25:46;20.25;;;18.02;;
19414;SDS011;9843;48.882;12.592;2022-08-19T09:28:13;19.65;;;17.08;;
19414;SDS011;9843;48.882;12.592;2022-08-19T09:30:41;24.53;;;19.37;;
19414;SDS011;9843;48.882;12.592;2022-08-19T09:33:07;22.93;;;19.70;;
19414;SDS011;9843;48.882;12.592;2022-08-19T09:35:34;52.17;;;20.27;;
19414;SDS011;9843;48.882;12.592;2022-08-19T09:38:01;23.47;;;18.80;;
19414;SDS011;9843;48.882;12.592;2022-08-19T09:40:30;22.60;;;18.50;;
19414;SDS011;9843;48.882;12.592;2022-08-19T09:42:57;23.57;;;18.13;;
19414;SDS011;9843;48.882;12.592;2022-08-19T09:45:25;26.13;;;20.97;;
19414;SDS011;9843;48.882;12.592;2022-08-19T09:47:52;22.50;;;19.20;;
19414;SDS011;9843;48.882;12.592;2022-08-19T09:50:19;21.47;;;19.27;;
19414;SDS011;9843;48.882;12.592;2022-08-19T09:52:47;20.90;;;18.70;;
19414;SDS011;9843;48.882;12.592;2022-08-19T09:55:14;22.10;;;20.00;;
19414;SDS011;9843;48.882;12.592;2022-08-19T09:57:43;19.00;;;16.93;;
19414;SDS011;9843;48.882;12.592;2022-08-19T10:00:10;22.67;;;20.17;;
19414;SDS011;9843;48.882;12.592;2022-08-19T10:02:37;20.00;;;17.53;;
19414;SDS011;9843;48.882;12.592;2022-08-19T10:05:04;22.77;;;17.03;;
19414;SDS011;9843;48.882;12.592;2022-08-19T10:07:49;20.63;;;17.93;;
19414;SDS011;9843;48.882;12.592;2022-08-19T10:10:16;22.40;;;20.00;;
19414;SDS011;9843;48.882;12.592;2022-08-19T10:12:45;19.03;;;17.23;;
19414;SDS011;9843;48.882;12.592;2022-08-19T10:15:12;20.67;;;18.43;;
19414;SDS011;9843;48.882;12.592;2022-08-19T10:17:39;18.40;;;16.47;;
19414;SDS011;9843;48.882;12.592;2022-08-19T10:20:07;19.23;;;17.43;;
19414;SDS011;9843;48.882;12.592;2022-08-19T10:22:34;18.00;;;16.13;;
19414;SDS011;9843;48.882;12.592;2022-08-19T10:25:02;18.67;;;16.87;;
19414;SDS011;9843;48.882;12.592;2022-08-19T10:27:30;21.17;;;16.50;;
19414;SDS011;9843;48.882;12.592;2022-08-19T10:29:58;20.90;;;17.43;;
19414;SDS011;9843;48.882;12.592;2022-08-19T10:32:26;20.73;;;18.73;;
19414;SDS011;9843;48.882;12.592;2022-08-19T10:34:54;18.30;;;16.57;;
19414;SDS011;9843;48.882;12.592;2022-08-19T10:37:21;16.73;;;15.03;;
19414;SDS011;9843;48.882;12.592;2022-08-19T10:39:48;23.07;;;15.93;;
19414;SDS011;9843;48.882;12.592;2022-08-19T10:42:14;18.77;;;16.90;;
19414;SDS011;9843;48.882;12.592;2022-08-19T10:44:43;16.57;;;14.97;;
19414;SDS011;9843;48.882;12.592;2022-08-19T10:47:12;18.47;;;15.73;;
19414;SDS011;9843;48.882;12.592;2022-08-19T10:49:40;22.20;;;16.27;;
19414;SDS011;9843;48.882;12.592;2022-08-19T10:52:20;18.50;;;14.38;;
19414;SDS011;9843;48.882;12.592;2022-08-19T10:54:59;17.00;;;14.98;;
19414;SDS011;9843;48.882;12.592;2022-08-19T10:57:43;21.48;;;13.00;;
19414;SDS011;9843;48.882;12.592;2022-08-19T11:00:10;19.92;;;14.98;;
19414;SDS011;9843;48.882;12.592;2022-08-19T11:02:39;16.70;;;15.10;;
19414;SDS011;9843;48.882;12.592;2022-08-19T11:05:07;17.13;;;13.77;;
19414;SDS011;9843;48.882;12.592;2022-08-19T11:07:35;23.58;;;17.35;;
19414;SDS011;9843;48.882;12.592;2022-08-19T11:10:03;14.73;;;13.23;;
19414;SDS011;9843;48.882;12.592;2022-08-19T11:12:30;18.00;;;14.70;;
19414;SDS011;9843;48.882;12.592;2022-08-19T11:14:58;17.08;;;15.30;;
19414;SDS011;9843;48.882;12.592;2022-08-19T11:17:24;17.42;;;14.93;;
19414;SDS011;9843;48.882;12.592;2022-08-19T11:19:52;17.77;;;15.38;;
19414;SDS011;9843;48.882;12.592;2022-08-19T11:22:19;13.93;;;12.57;;
19414;SDS011;9843;48.882;12.592;2022-08-19T11:24:46;13.43;;;11.23;;
19414;SDS011;9843;48.882;12.592;2022-08-19T11:27:13;16.42;;;13.77;;
19414;SDS011;9843;48.882;12.592;2022-08-19T11:29:40;23.55;;;13.80;;
19414;SDS011;9843;48.882;12.592;2022-08-19T11:32:07;13.32;;;12.23;;
19414;SDS011;9843;48.882;12.592;2022-08-19T11:34:36;10.85;;;9.85;;
19414;SDS011;9843;48.882;12.592;2022-08-19T11:37:05;10.82;;;9.73;;
19414;SDS011;9843;48.882;12.592;2022-08-19T11:39:34;13.25;;;10.10;;
19414;SDS011;9843;48.882;12.592;2022-08-19T11:42:02;10.23;;;9.23;;
19414;SDS011;9843;48.882;12.592;2022-08-19T11:44:50;11.88;;;10.88;;
19414;SDS011;9843;48.882;12.592;2022-08-19T11:47:17;12.95;;;11.85;;
19414;SDS011;9843;48.882;12.592;2022-08-19T11:49:45;12.77;;;10.32;;
19414;SDS011;9843;48.882;12.592;2022-08-19T11:52:13;14.02;;;10.48;;
19414;SDS011;9843;48.882;12.592;2022-08-19T11:54:40;16.58;;;10.68;;
19414;SDS011;9843;48.882;12.592;2022-08-19T11:57:07;12.25;;;11.15;;
19414;SDS011;9843;48.882;12.592;2022-08-19T11:59:33;10.65;;;9.10;;
19414;SDS011;9843;48.882;12.592;2022-08-19T12:02:00;11.50;;;10.18;;
19414;SDS011;9843;48.882;12.592;2022-08-19T12:04:27;13.20;;;11.90;;
19414;SDS011;9843;48.882;12.592;2022-08-19T12:06:54;12.45;;;11.15;;
19414;SDS011;9843;48.882;12.592;2022-08-19T12:09:22;11.55;;;10.45;;
19414;SDS011;9843;48.882;12.592;2022-08-19T12:11:48;13.43;;;12.20;;
19414;SDS011;9843;48.882;12.592;2022-08-19T12:14:16;13.43;;;12.00;;
19414;SDS011;9843;48.882;12.592;2022-08-19T12:16:43;14.25;;;12.43;;
19414;SDS011;9843;48.882;12.592;2022-08-19T12:19:11;14.32;;;13.00;;
19414;SDS011;9843;48.882;12.592;2022-08-19T12:21:38;12.95;;;10.88;;
19414;SDS011;9843;48.882;12.592;2022-08-19T12:24:05;15.77;;;13.07;;
19414;SDS011;9843;48.882;12.592;2022-08-19T12:26:34;11.38;;;10.38;;
19414;SDS011;9843;48.882;12.592;2022-08-19T12:29:01;10.50;;;9.38;;
19414;SDS011;9843;48.882;12.592;2022-08-19T12:31:28;11.63;;;10.60;;
19414;SDS011;9843;48.882;12.592;2022-08-19T12:33:56;11.70;;;10.43;;
19414;SDS011;9843;48.882;12.592;2022-08-19T12:36:23;10.07;;;9.05;;
19414;SDS011;9843;48.882;12.592;2022-08-19T12:38:50;18.25;;;9.25;;
19414;SDS011;9843;48.882;12.592;2022-08-19T12:41:18;12.13;;;11.02;;
19414;SDS011;9843;48.882;12.592;2022-08-19T12:43:48;12.68;;;11.38;;
19414;SDS011;9843;48.882;12.592;2022-08-19T12:46:15;13.38;;;9.90;;
19414;SDS011;9843;48.882;12.592;2022-08-19T12:48:43;15.32;;;10.85;;
19414;SDS011;9843;48.882;12.592;2022-08-19T12:51:11;10.85;;;9.82;;
19414;SDS011;9843;48.882;12.592;2022-08-19T12:53:39;11.45;;;10.25;;
19414;SDS011;9843;48.882;12.592;2022-08-19T12:56:07;12.27;;;11.07;;
19414;SDS011;9843;48.882;12.592;2022-08-19T12:58:35;12.27;;;10.00;;
19414;SDS011;9843;48.882;12.592;2022-08-19T13:01:07;10.00;;;9.13;;
19414;SDS011;9843;48.882;12.592;2022-08-19T13:03:35;21.83;;;11.27;;
19414;SDS011;9843;48.882;12.592;2022-08-19T13:06:02;11.18;;;10.00;;
19414;SDS011;9843;48.882;12.592;2022-08-19T13:08:29;10.93;;;9.93;;
19414;SDS011;9843;48.882;12.592;2022-08-19T13:10:56;12.50;;;11.20;;
19414;SDS011;9843;48.882;12.592;2022-08-19T13:13:23;12.48;;;11.23;;
19414;SDS011;9843;48.882;12.592;2022-08-19T13:15:50;13.13;;;11.93;;
19414;SDS011;9843;48.882;12.592;2022-08-19T13:18:19;12.18;;;10.88;;
19414;SDS011;9843;48.882;12.592;2022-08-19T13:20:46;11.65;;;9.85;;
19414;SDS011;9843;48.882;12.592;2022-08-19T13:23:12;11.75;;;10.63;;
19414;SDS011;9843;48.882;12.592;2022-08-19T13:25:39;13.80;;;10.85;;
19414;SDS011;9843;48.882;12.592;2022-08-19T13:28:06;12.73;;;11.43;;
19414;SDS011;9843;48.882;12.592;2022-08-19T13:30:33;14.00;;;10.90;;
19414;SDS011;9843;48.882;12.592;2022-08-19T13:33:17;12.00;;;10.18;;
19414;SDS011;9843;48.882;12.592;2022-08-19T13:35:46;18.05;;;11.02;;
19414;SDS011;9843;48.882;12.592;2022-08-19T13:38:16;10.65;;;9.65;;
19414;SDS011;9843;48.882;12.592;2022-08-19T13:40:43;9.90;;;9.00;;
19414;SDS011;9843;48.882;12.592;2022-08-19T13:43:11;11.57;;;10.48;;
19414;SDS011;9843;48.882;12.592;2022-08-19T13:45:38;10.35;;;9.35;;
19414;SDS011;9843;48.882;12.592;2022-08-19T13:48:07;8.93;;;8.13;;
19414;SDS011;9843;48.882;12.592;2022-08-19T13:50:35;11.48;;;9.55;;
19414;SDS011;9843;48.882;12.592;2022-08-19T13:53:07;16.55;;;9.25;;
19414;SDS011;9843;48.882;12.592;2022-08-19T13:55:35;9.75;;;8.75;;
19414;SDS011;9843;48.882;12.592;2022-08-19T13:58:03;11.35;;;9.25;;
19414;SDS011;9843;48.882;12.592;2022-08-19T14:00:31;9.50;;;8.60;;
19414;SDS011;9843;48.882;12.592;2022-08-19T14:03:00;11.38;;;8.45;;
19414;SDS011;9843;48.882;12.592;2022-08-19T14:05:27;11.35;;;9.35;;
19414;SDS011;9843;48.882;12.592;2022-08-19T14:07:55;8.93;;;8.18;;
19414;SDS011;9843;48.882;12.592;2022-08-19T14:10:24;8.25;;;7.55;;
19414;SDS011;9843;48.882;12.592;2022-08-19T14:12:53;7.80;;;7.10;;
19414;SDS011;9843;48.882;12.592;2022-08-19T14:15:23;11.25;;;8.77;;
19414;SDS011;9843;48.882;12.592;2022-08-19T14:17:50;9.98;;;8.13;;
19414;SDS011;9843;48.882;12.592;2022-08-19T14:20:18;8.77;;;7.97;;
19414;SDS011;9843;48.882;12.592;2022-08-19T14:22:46;8.50;;;7.60;;
19414;SDS011;9843;48.882;12.592;2022-08-19T14:25:14;8.65;;;7.85;;
19414;SDS011;9843;48.882;12.592;2022-08-19T14:27:43;10.07;;;7.30;;
19414;SDS011;9843;48.882;12.592;2022-08-19T14:30:12;10.05;;;8.02;;
19414;SDS011;9843;48.882;12.592;2022-08-19T14:32:41;8.90;;;8.00;;